AKST,Max TemperatureF,Mean TemperatureF,Min TemperatureF,Max Dew PointF,MeanDew PointF,Min DewpointF,Max Humidity, Mean Humidity, Min Humidity, Max Sea Level PressureIn, Mean Sea Level PressureIn, Min Sea Level PressureIn, Max VisibilityMiles, Mean VisibilityMiles, Min VisibilityMiles, Max Wind SpeedMPH, Mean Wind SpeedMPH, Max Gust SpeedMPH,PrecipitationIn, CloudCover, Events, WindDirDegrees
2012-11-1,35,30,25,27,22,16,0,0,0,29.75,29.64,29.51,10,5,0,39,26,48,0.07,7,Fog-Snow,360
2012-11-2,35,34,32,27,24,21,79,71,58,29.52,29.41,29.37,10,10,9,39,0,46,0.00,7,Snow,348
2012-11-3,32,31,29,29,26,22,0,0,0,29.47,29.42,29.37,10,7,1,26,17,32,0.07,8,Snow,336
2012-11-4,32,27,22,29,25,21,93,84,69,29.76,29.60,29.47,10,7,2,25,17,31,0.04,8,Snow,337
2012-11-5,31,30,28,28,22,19,93,70,58,30.22,30.03,29.78,10,10,7,29,20,35,T,8,Snow,342
2012-11-6,32,25,17,22,20,15,85,70,55,30.38,30.33,30.24,10,10,9,23,12,26,0.00,5,,346
2012-11-7,39,28,17,43,35,16,100,89,60,30.33,29.95,29.74,10,5,1,44,23,51,0.20,7,Rain-Snow,135
2012-11-8,46,45,43,46,44,43,100,95,90,29.80,29.53,29.16,10,4,1,33,0,41,0.18,8,Rain,142
2012-11-9,46,44,41,45,42,39,100,96,87,29.30,29.14,29.03,10,3,1,44,20,53,0.63,8,Rain,181
2012-11-10,41,40,39,41,40,39,0,0,0,29.71,29.54,29.30,7,2,1,21,14,25,0.20,8,Rain,299
2012-11-11,39,38,36,39,36,30,0,0,0,30.11,29.91,29.72,10,6,2,18,0,21,0.10,8,Rain,308
2012-11-12,45,35,25,43,34,24,100,92,85,30.12,29.93,29.63,10,9,2,41,19,52,0.54,6,Rain,139
2012-11-13,47,45,42,45,39,32,100,84,61,29.62,29.37,29.19,10,7,2,43,0,54,0.86,7,Rain,163
2012-11-14,44,41,37,37,36,32,100,85,61,29.45,29.30,29.23,10,9,6,35,22,43,0.10,7,Rain,252
2012-11-15,39,34,29,37,29,19,0,0,0,30.07,29.83,29.48,10,9,5,33,25,41,0.02,8,Rain-Snow,320
2012-11-16,34,29,24,32,25,19,0,0,0,30.09,29.85,29.53,10,9,4,26,10,32,0.06,6,Rain-Snow,48
2012-11-17,39,34,29,37,30,20,100,91,66,29.51,29.39,29.34,10,6,2,31,13,38,0.22,8,Rain-Snow,327
2012-11-18,26,25,23,19,18,15,86,76,69,29.75,29.60,29.46,10,3,0,44,33,53,0.01,8,Snow,332
2012-11-19,26,23,20,18,15,14,80,72,53,29.86,29.82,29.76,10,6,1,44,28,53,0.01,8,Snow,341
2012-11-20,25,23,20,18,17,15,86,76,61,29.85,29.81,29.78,10,7,1,33,23,44,T,8,Snow,344
2012-11-21,29,25,20,21,18,12,86,74,62,29.92,29.88,29.81,10,8,1,29,19,35,T,8,Snow,355
2012-11-22,28,26,23,21,18,16,81,72,57,29.91,29.84,29.78,10,9,5,29,17,35,T,8,Snow,339
2012-11-23,25,23,21,19,16,14,86,75,64,29.81,29.76,29.73,10,8,2,25,14,30,0.02,8,Snow,321
2012-11-24,27,22,16,23,20,15,0,0,0,29.99,29.89,29.82,10,9,1,12,5,22,0.03,7,Snow,312
2012-11-25,29,23,17,25,22,15,0,0,0,30.14,30.08,29.99,10,10,2,15,8,17,0.01,6,Snow,331
2012-11-26,35,25,14,32,29,14,100,90,74,30.15,29.92,29.71,10,7,1,36,0,46,0.02,7,Snow,142
2012-11-27,34,33,32,34,32,30,0,0,0,30.05,29.87,29.64,10,4,0,23,9,29,0.65,8,Fog-Snow,296
2012-11-28,34,31,28,34,29,25,0,0,0,30.06,30.02,29.95,10,10,8,21,12,26,T,5,Rain,329
2012-11-29,32,30,28,26,23,21,0,0,0,29.95,29.87,29.83,10,10,10,25,19,31,0.00,7,,345
2012-11-30,30,29,28,25,23,22,82,77,65,30.00,29.92,29.83,10,10,10,25,0,30,0.00,8,,335